Time;durP1;ratioP1;P1;durP2;ratioP2;P2;SDS_P1;SDS_P2;PMS_P1;PMS_P2;Temp;Humidity;BMP_temperature;BMP_pressure;BME280_temperature;BME280_humidity;BME280_pressure;Samples;Min_cycle;Max_cycle;Signal;HPM_P1;HPM_P2
2023/04/13 00:00:39;;;;;;;1.70;1.60;;;6.50;99.90;;;;;;5077911;28;20055;-85
2023/04/13 00:03:05;;;;;;;2.63;1.70;;;6.50;99.90;;;;;;5095058;28;20058;-85
2023/04/13 00:05:33;;;;;;;2.35;1.65;;;6.50;99.90;;;;;;5077992;28;20123;-85
2023/04/13 00:08:03;;;;;;;1.70;1.60;;;6.50;99.90;;;;;;5095735;28;20036;-85
2023/04/13 00:10:40;;;;;;;;;;;6.60;99.90;;;;;;5094879;28;20051;-85
2023/04/13 00:13:07;;;;;;;2.15;1.80;;;6.70;99.90;;;;;;5077742;28;20016;-84
2023/04/13 00:15:35;;;;;;;2.28;1.52;;;6.70;99.90;;;;;;5093512;28;20039;-84
2023/04/13 00:18:01;;;;;;;1.60;1.50;;;6.80;99.90;;;;;;5095564;28;20115;-85
2023/04/13 00:20:28;;;;;;;1.98;1.65;;;6.80;99.90;;;;;;5077492;28;20039;-85
2023/04/13 00:22:53;;;;;;;1.70;1.60;;;6.80;99.90;;;;;;5094231;28;20032;-85
2023/04/13 00:25:19;;;;;;;1.73;1.50;;;6.80;99.90;;;;;;5095029;28;20132;-84
2023/04/13 00:27:45;;;;;;;1.75;1.65;;;6.90;99.90;;;;;;5077945;28;20068;-83
2023/04/13 00:30:15;;;;;;;1.83;1.70;;;7.00;99.90;;;;;;5078412;28;20048;-84
2023/04/13 00:32:43;;;;;;;1.73;1.63;;;7.00;99.90;;;;;;5094909;28;20046;-84
2023/04/13 00:35:10;;;;;;;1.95;1.48;;;7.00;99.90;;;;;;5077878;28;20093;-84
2023/04/13 00:37:37;;;;;;;1.75;1.58;;;6.90;99.90;;;;;;5094101;28;20068;-84
2023/04/13 00:40:08;;;;;;;1.60;1.50;;;7.10;99.90;;;;;;5077706;28;20055;-83
2023/04/13 00:42:37;;;;;;;1.92;1.73;;;7.20;99.90;;;;;;5095814;28;20040;-84
2023/04/13 00:45:03;;;;;;;1.92;1.50;;;7.10;99.90;;;;;;5077755;28;20093;-84
2023/04/13 00:47:32;;;;;;;1.38;1.27;;;7.20;99.90;;;;;;5093638;28;20047;-85
2023/04/13 00:50:02;;;;;;;1.57;1.47;;;7.30;99.90;;;;;;5095433;28;20044;-84
2023/04/13 00:52:28;;;;;;;1.55;1.40;;;7.30;99.90;;;;;;5093660;28;20326;-84
2023/04/13 00:54:56;;;;;;;1.58;1.48;;;7.20;99.90;;;;;;5093625;28;20078;-84
2023/04/13 00:57:24;;;;;;;2.00;1.30;;;7.30;99.90;;;;;;5093595;28;20071;-84
2023/04/13 00:59:51;;;;;;;1.33;1.23;;;7.40;99.90;;;;;;5093555;28;20040;-84
2023/04/13 01:02:23;;;;;;;1.40;1.30;;;7.40;99.90;;;;;;5076566;28;20035;-84
2023/04/13 01:04:49;;;;;;;1.63;1.30;;;7.40;99.90;;;;;;5093516;28;20039;-83
2023/04/13 01:07:40;;;;;;;1.65;1.40;;;7.30;99.90;;;;;;5094922;28;20043;-84
2023/04/13 01:10:09;;;;;;;1.52;1.40;;;7.40;99.90;;;;;;5127553;27;20074;-83
2023/04/13 01:12:48;;;;;;;1.45;1.20;;;7.30;99.90;;;;;;5093259;28;20119;-84
2023/04/13 01:15:15;;;;;;;1.67;1.20;;;7.30;99.90;;;;;;5093509;28;20040;-84
2023/04/13 01:17:50;;;;;;;1.35;1.20;;;7.20;99.90;;;;;;5093770;28;20035;-84
2023/04/13 01:20:19;;;;;;;1.40;1.30;;;7.20;99.90;;;;;;5093297;28;20044;-84
2023/04/13 01:22:54;;;;;;;3.05;1.40;;;7.20;99.90;;;;;;5076491;28;20123;-85
2023/04/13 01:25:22;;;;;;;1.45;1.20;;;7.20;99.90;;;;;;5076348;28;20044;-85
2023/04/13 01:28:17;;;;;;;1.40;1.30;;;7.30;99.90;;;;;;5076073;28;20495;-85
2023/04/13 01:30:44;;;;;;;2.13;1.40;;;7.20;99.90;;;;;;5091718;28;20400;-85
2023/04/13 01:33:11;;;;;;;1.30;1.20;;;7.20;99.90;;;;;;5127075;27;20036;-85
2023/04/13 01:35:38;;;;;;;2.50;1.25;;;7.20;99.90;;;;;;5076311;28;20032;-85
2023/04/13 01:38:05;;;;;;;1.08;0.98;;;7.20;99.90;;;;;;5094249;28;20385;-85
2023/04/13 01:40:33;;;;;;;1.40;1.00;;;7.10;99.90;;;;;;5094446;28;20451;-85
2023/04/13 01:43:00;;;;;;;1.35;1.23;;;7.10;99.90;;;;;;5094388;28;20035;-85
2023/04/13 01:45:35;;;;;;;1.33;1.00;;;7.00;99.90;;;;;;5092877;28;20044;-85
2023/04/13 01:48:12;;;;;;;1.88;1.15;;;7.10;99.90;;;;;;5092922;28;20070;-85
2023/04/13 01:50:44;;;;;;;1.27;1.02;;;7.10;99.90;;;;;;5094107;28;20042;-85
2023/04/13 01:53:15;;;;;;;1.20;1.10;;;7.00;99.90;;;;;;5092675;28;20480;-84
2023/04/13 01:55:42;;;;;;;1.80;1.10;;;6.90;99.90;;;;;;5092831;28;20036;-85
2023/04/13 01:58:11;;;;;;;1.38;1.05;;;6.90;99.90;;;;;;5094210;28;20043;-85
2023/04/13 02:00:38;;;;;;;2.17;1.17;;;7.00;99.90;;;;;;5092659;28;20093;-85
2023/04/13 02:03:05;;;;;;;1.20;1.10;;;7.00;99.90;;;;;;5075912;28;20048;-84
2023/04/13 02:05:32;;;;;;;2.10;1.10;;;6.90;99.90;;;;;;5092592;28;20044;-85
2023/04/13 02:07:58;;;;;;;1.77;1.20;;;7.00;99.90;;;;;;5075748;28;20085;-85
2023/04/13 02:10:25;;;;;;;2.05;1.10;;;7.00;99.90;;;;;;5092282;28;20500;-85
2023/04/13 02:12:52;;;;;;;1.60;1.02;;;6.90;99.90;;;;;;5075467;28;20043;-85
2023/04/13 02:15:17;;;;;;;1.23;1.10;;;7.00;99.90;;;;;;5092420;28;20046;-85
2023/04/13 02:17:43;;;;;;;1.63;1.00;;;7.00;99.90;;;;;;5092872;28;20036;-85
2023/04/13 02:20:12;;;;;;;1.10;0.93;;;6.90;99.90;;;;;;5092716;28;20024;-85
2023/04/13 02:22:40;;;;;;;0.90;0.90;;;6.80;99.90;;;;;;5075682;28;20119;-86
2023/04/13 02:25:07;;;;;;;2.42;1.00;;;6.90;99.90;;;;;;5092315;28;20052;-85
2023/04/13 02:27:34;;;;;;;2.20;1.30;;;7.00;99.90;;;;;;5094269;28;20043;-85
2023/04/13 02:30:00;;;;;;;1.15;0.90;;;7.00;99.90;;;;;;5092223;28;20083;-85
2023/04/13 02:32:28;;;;;;;1.38;1.00;;;6.90;99.90;;;;;;5075964;28;20452;-86
2023/04/13 02:34:54;;;;;;;1.40;1.30;;;6.90;99.90;;;;;;5075304;28;20032;-86
2023/04/13 02:37:19;;;;;;;1.75;1.05;;;6.90;99.90;;;;;;5075268;28;20086;-85
2023/04/13 02:39:45;;;;;;;1.40;1.10;;;6.80;99.90;;;;;;5094814;28;20056;-85
2023/04/13 02:42:11;;;;;;;1.45;1.20;;;6.80;99.90;;;;;;5096598;28;20119;-86
2023/04/13 02:44:37;;;;;;;1.33;1.13;;;6.90;99.90;;;;;;5096869;28;20044;-86
2023/04/13 02:47:03;;;;;;;2.00;1.35;;;6.80;99.90;;;;;;5097680;28;20472;-86
2023/04/13 02:49:29;;;;;;;1.67;1.10;;;6.80;99.90;;;;;;5079793;28;20040;-86
2023/04/13 02:51:55;;;;;;;2.13;1.33;;;6.80;99.90;;;;;;5079479;28;20127;-86
2023/04/13 02:54:20;;;;;;;2.20;1.10;;;6.80;99.90;;;;;;5096001;28;20039;-86
2023/04/13 02:56:46;;;;;;;1.25;1.10;;;6.80;99.90;;;;;;5097740;28;20032;-86
2023/04/13 02:59:13;;;;;;;1.42;1.00;;;6.80;99.90;;;;;;5097610;28;20050;-85
2023/04/13 03:01:40;;;;;;;1.70;1.20;;;6.70;99.90;;;;;;5079258;28;20123;-86
2023/04/13 03:04:07;;;;;;;1.42;1.13;;;6.80;99.90;;;;;;5079339;28;20052;-85
2023/04/13 03:06:32;;;;;;;2.17;1.20;;;6.80;99.90;;;;;;5130425;27;20066;-86
2023/04/13 03:08:58;;;;;;;1.55;1.10;;;6.90;99.90;;;;;;5097472;28;20044;-86
2023/04/13 03:11:25;;;;;;;1.42;1.17;;;6.70;99.90;;;;;;5097315;28;20071;-86
2023/04/13 03:13:52;;;;;;;2.42;1.10;;;6.80;99.90;;;;;;5095900;28;20040;-86
2023/04/13 03:16:21;;;;;;;1.38;1.02;;;6.90;99.90;;;;;;5097605;28;20040;-86
2023/04/13 03:18:47;;;;;;;1.20;1.10;;;6.90;99.90;;;;;;5097575;28;20044;-86
2023/04/13 03:21:13;;;;;;;1.10;1.00;;;6.90;99.90;;;;;;5097113;28;20345;-86
2023/04/13 03:23:38;;;;;;;1.55;1.10;;;6.80;99.90;;;;;;5096962;28;20059;-85
2023/04/13 03:26:04;;;;;;;1.05;1.05;;;6.70;99.90;;;;;;5097005;28;20448;-85
2023/04/13 03:28:30;;;;;;;1.38;1.00;;;6.60;99.90;;;;;;5097044;28;20068;-86
2023/04/13 03:30:56;;;;;;;1.05;0.88;;;6.60;99.90;;;;;;5095594;28;20066;-86
2023/04/13 03:33:21;;;;;;;0.80;0.80;;;6.60;99.90;;;;;;5129982;27;20484;-86
2023/04/13 03:35:47;;;;;;;1.80;1.27;;;6.60;99.90;;;;;;5097144;28;20040;-86
2023/04/13 03:38:13;;;;;;;1.00;0.82;;;6.70;99.90;;;;;;5096916;28;20135;-85
2023/04/13 03:40:38;;;;;;;0.80;0.80;;;6.80;99.90;;;;;;5096568;28;20083;-85
2023/04/13 03:43:04;;;;;;;0.90;0.80;;;6.80;99.90;;;;;;5095231;28;20043;-85
2023/04/13 03:45:30;;;;;;;1.45;1.10;;;6.80;99.90;;;;;;5097298;28;20144;-85
2023/04/13 03:47:55;;;;;;;1.30;1.00;;;6.80;99.90;;;;;;5078537;28;20040;-86
2023/04/13 03:50:21;;;;;;;1.20;0.90;;;6.80;99.90;;;;;;5096656;28;20035;-86
2023/04/13 03:52:46;;;;;;;1.77;0.98;;;6.80;99.90;;;;;;5095119;28;20484;-86
2023/04/13 03:55:12;;;;;;;2.08;1.20;;;6.70;99.90;;;;;;5096587;28;20068;-85
2023/04/13 03:57:38;;;;;;;1.67;1.13;;;6.70;99.90;;;;;;5096551;28;20040;-85
2023/04/13 04:00:06;;;;;;;1.23;1.13;;;6.60;99.90;;;;;;5095426;28;20132;-85
2023/04/13 04:02:31;;;;;;;1.00;1.00;;;6.70;99.90;;;;;;5096267;28;20385;-86
2023/04/13 04:04:58;;;;;;;1.98;1.20;;;6.60;99.90;;;;;;5096432;28;20039;-86
2023/04/13 04:07:24;;;;;;;1.40;1.30;;;6.70;99.90;;;;;;5096484;28;20044;-85
2023/04/13 04:09:50;;;;;;;1.30;1.20;;;6.60;99.90;;;;;;5096469;28;20040;-86
2023/04/13 04:12:15;;;;;;;1.88;1.30;;;6.60;99.90;;;;;;5128945;27;20542;-85
2023/04/13 04:14:41;;;;;;;1.38;1.27;;;6.50;99.90;;;;;;5078221;28;20607;-86
2023/04/13 04:17:06;;;;;;;1.33;1.20;;;6.50;99.90;;;;;;5096262;28;20095;-85
2023/04/13 04:19:32;;;;;;;1.52;1.40;;;6.50;99.90;;;;;;5094588;28;20028;-85
2023/04/13 04:22:03;;;;;;;1.50;1.40;;;6.40;99.90;;;;;;5094790;28;20036;-85
2023/04/13 04:24:29;;;;;;;1.50;1.40;;;6.40;99.90;;;;;;5094600;28;20057;-86
2023/04/13 04:26:56;;;;;;;1.58;1.42;;;6.40;99.90;;;;;;5094761;28;20046;-85
2023/04/13 04:29:28;;;;;;;1.50;1.40;;;6.40;99.90;;;;;;5094545;28;20404;-85
2023/04/13 04:31:54;;;;;;;2.28;1.60;;;6.50;99.90;;;;;;5094302;28;20044;-85
2023/04/13 04:34:20;;;;;;;2.35;1.55;;;6.40;99.90;;;;;;5077331;28;20093;-87
2023/04/13 04:36:49;;;;;;;2.13;1.63;;;6.40;99.90;;;;;;5096083;28;20032;-86
2023/04/13 04:39:20;;;;;;;2.78;1.48;;;6.40;99.90;;;;;;5095396;28;20052;-80
2023/04/13 04:41:53;;;;;;;1.70;1.40;;;6.40;99.90;;;;;;5095440;28;20054;-75
2023/04/13 04:44:29;;;;;;;1.77;1.50;;;6.50;99.90;;;;;;5095039;28;20484;-74
2023/04/13 04:46:55;;;;;;;2.40;1.50;;;6.50;99.90;;;;;;5095925;28;20043;-86
2023/04/13 04:49:21;;;;;;;2.40;1.73;;;6.40;99.90;;;;;;5095545;28;20043;-83
2023/04/13 04:51:48;;;;;;;2.05;1.70;;;6.50;99.90;;;;;;5095565;28;20036;-87
2023/04/13 04:54:15;;;;;;;2.42;1.70;;;6.50;99.90;;;;;;5094590;28;20051;-86
2023/04/13 04:56:41;;;;;;;1.48;1.38;;;6.40;99.90;;;;;;5095931;28;20114;-84
2023/04/13 04:59:07;;;;;;;1.70;1.60;;;6.50;99.90;;;;;;5094127;28;20063;-86
2023/04/13 05:01:33;;;;;;;1.65;1.55;;;6.40;99.90;;;;;;5093777;28;20431;-82
2023/04/13 05:04:00;;;;;;;2.45;1.90;;;6.50;99.90;;;;;;5093766;28;20039;-86
2023/04/13 05:06:31;;;;;;;2.20;1.88;;;6.50;99.90;;;;;;5093984;28;20051;-85
2023/04/13 05:08:57;;;;;;;1.80;1.70;;;6.50;99.90;;;;;;5094121;28;20040;-85
2023/04/13 05:11:22;;;;;;;2.10;1.90;;;6.40;99.90;;;;;;5095187;28;20036;-86
2023/04/13 05:13:48;;;;;;;1.98;1.88;;;6.50;99.90;;;;;;5093823;28;20479;-82
2023/04/13 05:16:14;;;;;;;1.85;1.75;;;6.50;99.90;;;;;;5093914;28;20106;-85
2023/04/13 05:18:44;;;;;;;2.00;1.90;;;6.50;99.90;;;;;;5076282;28;20040;-73
2023/04/13 05:21:12;;;;;;;2.00;1.90;;;6.50;99.90;;;;;;5077369;28;20071;-87
2023/04/13 05:23:37;;;;;;;2.00;1.80;;;6.60;99.90;;;;;;5095091;28;20043;-86
2023/04/13 05:26:03;;;;;;;2.20;1.92;;;6.50;99.90;;;;;;5095494;28;20408;-88
2023/04/13 05:28:29;;;;;;;2.42;2.22;;;6.40;99.90;;;;;;5094479;28;20130;-88
2023/04/13 05:31:00;;;;;;;2.67;1.98;;;6.50;99.90;;;;;;5095228;28;20484;-87
2023/04/13 05:33:26;;;;;;;2.05;1.85;;;6.50;99.90;;;;;;5093629;28;20456;-87
2023/04/13 05:35:51;;;;;;;2.20;2.00;;;6.40;99.90;;;;;;5093950;28;20084;-87
2023/04/13 05:38:17;;;;;;;1.77;1.67;;;6.50;99.90;;;;;;5094667;28;20059;-88
2023/04/13 05:40:43;;;;;;;1.63;1.52;;;6.30;99.90;;;;;;5127953;27;20043;-86
2023/04/13 05:43:10;;;;;;;2.05;1.92;;;6.50;99.90;;;;;;5094641;28;20680;-86
2023/04/13 05:45:36;;;;;;;2.25;2.00;;;6.40;99.90;;;;;;5093747;28;20076;-87
2023/04/13 05:48:03;;;;;;;2.95;1.92;;;6.40;99.90;;;;;;5128096;27;20082;-87
2023/04/13 05:50:29;;;;;;;2.13;1.92;;;6.50;99.90;;;;;;5093661;28;20063;-87
2023/04/13 05:52:56;;;;;;;1.83;1.70;;;6.50;99.90;;;;;;5093833;28;20036;-86
2023/04/13 05:55:22;;;;;;;1.70;1.60;;;6.60;99.90;;;;;;5076863;28;20044;-76
2023/04/13 05:57:48;;;;;;;2.30;2.08;;;6.70;99.90;;;;;;5092822;28;20028;-76
2023/04/13 06:00:17;;;;;;;2.28;1.73;;;6.80;99.90;;;;;;5092426;28;20122;-76
2023/04/13 06:02:42;;;;;;;1.90;1.70;;;6.60;99.90;;;;;;5092415;28;20054;-75
2023/04/13 06:05:08;;;;;;;2.50;1.98;;;6.60;99.90;;;;;;5092698;28;20036;-75
2023/04/13 06:07:34;;;;;;;1.80;1.70;;;6.60;99.90;;;;;;5092337;28;20101;-76
2023/04/13 06:10:00;;;;;;;2.40;1.90;;;6.70;99.90;;;;;;5093875;28;20040;-76
2023/04/13 06:12:26;;;;;;;2.47;2.00;;;6.70;99.90;;;;;;5075325;28;20127;-76
2023/04/13 06:14:52;;;;;;;1.92;1.83;;;6.70;99.90;;;;;;5092226;28;20082;-76
2023/04/13 06:17:18;;;;;;;2.25;2.00;;;6.90;99.90;;;;;;5092587;28;20384;-76
2023/04/13 06:19:43;;;;;;;2.55;2.15;;;7.00;99.90;;;;;;5092185;28;20028;-77
2023/04/13 06:22:09;;;;;;;2.55;2.22;;;7.00;99.90;;;;;;5075331;28;20089;-76
2023/04/13 06:24:36;;;;;;;3.30;2.20;;;7.10;99.90;;;;;;5075590;28;20101;-76
2023/04/13 06:27:01;;;;;;;2.78;2.28;;;7.10;99.90;;;;;;5093304;28;20101;-76
2023/04/13 06:29:27;;;;;;;2.15;1.95;;;7.20;99.90;;;;;;5092120;28;20032;-76
2023/04/13 06:31:53;;;;;;;2.47;2.13;;;7.20;99.90;;;;;;5093558;28;20086;-76
2023/04/13 06:34:19;;;;;;;2.78;2.42;;;7.40;99.90;;;;;;5092317;28;20461;-76
2023/04/13 06:36:44;;;;;;;4.50;2.50;;;7.40;99.90;;;;;;5092323;28;20047;-76
2023/04/13 06:39:10;;;;;;;3.20;2.65;;;7.30;99.90;;;;;;5075029;28;20194;-76
2023/04/13 06:41:36;;;;;;;2.88;2.38;;;7.30;99.90;;;;;;5091932;28;20040;-76
2023/04/13 06:44:03;;;;;;;4.82;2.53;;;7.30;99.90;;;;;;5093536;28;20063;-75
2023/04/13 06:46:29;;;;;;;3.08;2.60;;;7.20;99.90;;;;;;5092342;28;20029;-76
2023/04/13 06:48:55;;;;;;;3.28;2.50;;;7.30;99.90;;;;;;5092158;28;20085;-76
2023/04/13 06:51:20;;;;;;;3.03;2.50;;;7.30;99.90;;;;;;5093072;28;20496;-76
2023/04/13 06:53:46;;;;;;;3.38;2.95;;;7.40;99.90;;;;;;5091858;28;20122;-76
2023/04/13 06:56:11;;;;;;;3.72;2.88;;;7.50;99.90;;;;;;5075104;28;20048;-76
2023/04/13 06:58:37;;;;;;;3.00;2.20;;;7.40;99.90;;;;;;5093388;28;20093;-78
2023/04/13 07:01:03;;;;;;;3.28;2.30;;;7.50;99.90;;;;;;5092028;28;20099;-77
2023/04/13 07:03:29;;;;;;;4.55;2.53;;;7.60;99.90;;;;;;5093281;28;20042;-77
2023/04/13 07:05:54;;;;;;;3.78;2.22;;;7.60;99.90;;;;;;5091777;28;20036;-76
2023/04/13 07:08:20;;;;;;;3.30;2.50;;;7.70;99.90;;;;;;5091712;28;20043;-75
2023/04/13 07:10:51;;;;;;;2.33;1.90;;;7.70;99.90;;;;;;5091601;28;20381;-74
2023/04/13 07:13:17;;;;;;;;;;;7.80;99.90;;;;;;5075492;28;20503;-75
2023/04/13 07:15:42;;;;;;;4.95;3.72;;;7.80;99.90;;;;;;5091672;28;19920;-75
2023/04/13 07:18:08;;;;;;;2.92;2.25;;;7.80;99.90;;;;;;5093158;28;20043;-75
2023/04/13 07:20:35;;;;;;;4.13;2.92;;;7.70;99.90;;;;;;5093109;28;20130;-75
2023/04/13 07:23:01;;;;;;;4.07;2.92;;;7.70;99.90;;;;;;5093094;28;20118;-75
2023/04/13 07:25:26;;;;;;;3.55;2.92;;;7.70;99.90;;;;;;5093734;28;20486;-75
2023/04/13 07:27:52;;;;;;;3.97;2.25;;;7.80;99.90;;;;;;5095590;28;20044;-75
2023/04/13 07:30:18;;;;;;;5.10;4.60;;;7.80;99.90;;;;;;5078368;28;20476;-74
2023/04/13 07:32:43;;;;;;;4.70;3.47;;;7.80;99.90;;;;;;5096662;28;20040;-73
2023/04/13 07:35:09;;;;;;;2.55;2.20;;;7.90;99.90;;;;;;5095483;28;20476;-73
2023/04/13 07:37:35;;;;;;;3.35;3.00;;;7.90;99.90;;;;;;5078001;28;20059;-72
2023/04/13 07:40:00;;;;;;;2.90;1.80;;;7.90;99.90;;;;;;5095093;28;20044;-73
2023/04/13 07:42:27;;;;;;;2.20;1.60;;;7.90;99.90;;;;;;5095321;28;20064;-73
2023/04/13 07:44:56;;;;;;;2.17;1.63;;;7.90;99.90;;;;;;5096132;28;20083;-73
2023/04/13 07:47:22;;;;;;;1.88;1.60;;;8.00;99.90;;;;;;5129021;27;20081;-74
2023/04/13 07:49:47;;;;;;;2.50;1.60;;;8.10;99.90;;;;;;5078219;28;20449;-74
2023/04/13 07:52:13;;;;;;;3.90;2.90;;;8.10;99.90;;;;;;5096256;28;20036;-73
2023/04/13 07:54:38;;;;;;;2.63;1.50;;;8.30;99.90;;;;;;5095094;28;20031;-74
2023/04/13 07:57:04;;;;;;;1.95;1.67;;;8.40;99.90;;;;;;5077831;28;20472;-73
2023/04/13 07:59:30;;;;;;;3.05;1.70;;;8.50;99.90;;;;;;5094671;28;20040;-74
2023/04/13 08:01:56;;;;;;;2.30;1.80;;;8.60;99.90;;;;;;5094576;28;20039;-73
2023/04/13 08:04:22;;;;;;;1.83;1.48;;;8.50;99.90;;;;;;5128702;27;20090;-74
2023/04/13 08:06:47;;;;;;;3.08;1.85;;;8.50;99.90;;;;;;5077649;28;20076;-73
2023/04/13 08:09:13;;;;;;;2.58;1.50;;;8.40;99.90;;;;;;5096106;28;20046;-73
2023/04/13 08:11:41;;;;;;;3.75;1.52;;;8.40;99.90;;;;;;5094413;28;20032;-72
2023/04/13 08:14:08;;;;;;;2.70;1.67;;;8.20;99.90;;;;;;5094537;28;20036;-73
2023/04/13 08:16:34;;;;;;;2.33;1.30;;;8.20;99.90;;;;;;5077605;28;20039;-74
2023/04/13 08:19:00;;;;;;;2.63;1.38;;;8.30;99.90;;;;;;5128486;27;20032;-75
2023/04/13 08:21:27;;;;;;;2.03;1.30;;;8.20;99.90;;;;;;5077647;28;20066;-74
2023/04/13 08:23:53;;;;;;;1.42;1.30;;;8.20;99.90;;;;;;5095684;28;20047;-74
2023/04/13 08:26:20;;;;;;;1.60;1.15;;;8.30;99.90;;;;;;5094113;28;20044;-74
2023/04/13 08:28:51;;;;;;;1.95;0.90;;;8.30;99.90;;;;;;5077217;28;20036;-74
2023/04/13 08:31:17;;;;;;;2.25;1.25;;;8.30;99.90;;;;;;5094369;28;20036;-75
2023/04/13 08:33:43;;;;;;;1.90;1.10;;;8.40;99.90;;;;;;5095250;28;20391;-75
2023/04/13 08:36:09;;;;;;;1.27;0.95;;;8.40;99.90;;;;;;5128097;27;20051;-74
2023/04/13 08:38:34;;;;;;;1.65;0.90;;;8.40;99.90;;;;;;5092908;28;20052;-74
2023/04/13 08:41:03;;;;;;;2.10;1.02;;;8.40;99.90;;;;;;5095516;28;20039;-74
2023/04/13 08:43:34;;;;;;;1.40;1.10;;;8.50;99.90;;;;;;5095421;28;20097;-74
2023/04/13 08:46:02;;;;;;;1.02;0.85;;;8.60;99.90;;;;;;5094845;28;20036;-74
2023/04/13 08:48:28;;;;;;;3.67;1.60;;;8.60;99.90;;;;;;5093792;28;20036;-74
2023/04/13 08:50:55;;;;;;;0.82;0.80;;;8.70;99.90;;;;;;5077073;28;20039;-74
2023/04/13 08:53:21;;;;;;;1.35;1.00;;;8.80;99.90;;;;;;5077023;28;20392;-74
2023/04/13 08:55:50;;;;;;;1.25;0.88;;;8.90;99.90;;;;;;5094378;28;20047;-74
2023/04/13 08:58:22;;;;;;;1.63;0.82;;;8.90;99.90;;;;;;5093860;28;20399;-74
2023/04/13 09:00:49;;;;;;;1.88;1.02;;;8.90;99.90;;;;;;5095180;28;20044;-73
2023/04/13 09:03:22;;;;;;;1.02;0.90;;;8.60;99.90;;;;;;5094981;28;20044;-74
2023/04/13 09:05:58;;;;;;;1.25;0.93;;;8.40;99.90;;;;;;5094993;28;20101;-73
2023/04/13 09:08:25;;;;;;;1.02;0.80;;;8.10;99.90;;;;;;5094877;28;20036;-73
2023/04/13 09:10:52;;;;;;;1.75;1.10;;;8.00;99.90;;;;;;5093199;28;20044;-74
2023/04/13 09:13:18;;;;;;;1.40;1.30;;;7.70;99.90;;;;;;5093516;28;20095;-74
2023/04/13 09:15:46;;;;;;;2.58;1.73;;;7.60;99.90;;;;;;5094758;28;20500;-74
2023/04/13 09:18:12;;;;;;;1.40;1.30;;;7.70;99.90;;;;;;5094420;28;20519;-74
2023/04/13 09:20:39;;;;;;;2.65;1.63;;;7.70;99.90;;;;;;5094670;28;20111;-74
2023/04/13 09:23:15;;;;;;;2.53;2.10;;;7.70;99.90;;;;;;5093065;28;20078;-74
2023/04/13 09:25:41;;;;;;;3.47;1.75;;;7.70;99.90;;;;;;5127152;27;20059;-74
2023/04/13 09:28:15;;;;;;;2.35;1.70;;;7.80;99.90;;;;;;5093244;28;20067;-73
2023/04/13 09:30:41;;;;;;;2.67;1.60;;;7.80;99.90;;;;;;5094509;28;20189;-74
2023/04/13 09:33:10;;;;;;;2.90;1.88;;;7.90;99.90;;;;;;5092945;28;20083;-74
2023/04/13 09:35:36;;;;;;;2.63;1.45;;;7.80;99.90;;;;;;5094431;28;20401;-73
2023/04/13 09:38:03;;;;;;;1.83;1.70;;;7.90;99.90;;;;;;5093915;28;20059;-74
2023/04/13 09:40:30;;;;;;;2.08;1.40;;;7.90;99.90;;;;;;5094120;28;20479;-74
2023/04/13 09:43:01;;;;;;;2.30;1.55;;;8.00;99.90;;;;;;5094256;28;20115;-74
2023/04/13 09:45:38;;;;;;;1.67;1.58;;;7.90;99.90;;;;;;5094188;28;20055;-74
2023/04/13 09:48:14;;;;;;;1.40;1.10;;;8.00;99.90;;;;;;5093621;28;20051;-74
2023/04/13 09:50:40;;;;;;;2.30;1.38;;;8.00;99.90;;;;;;5092888;28;20059;-74
2023/04/13 09:53:09;;;;;;;1.38;1.27;;;8.20;99.90;;;;;;5092481;28;20040;-74
2023/04/13 09:55:36;;;;;;;1.20;0.98;;;8.50;99.90;;;;;;5094016;28;20139;-73
2023/04/13 09:58:13;;;;;;;2.10;0.80;;;8.70;99.90;;;;;;5092472;28;20079;-73
2023/04/13 10:00:41;;;;;;;1.05;0.82;;;8.70;99.90;;;;;;5092449;28;20044;-74
2023/04/13 10:03:11;;;;;;;0.90;0.73;;;8.70;99.90;;;;;;5092390;28;20072;-73
2023/04/13 10:05:37;;;;;;;1.20;0.70;;;8.70;99.90;;;;;;5126489;27;20048;-74
2023/04/13 10:08:05;;;;;;;0.68;0.63;;;8.90;99.90;;;;;;5093861;28;20043;-74
2023/04/13 10:10:31;;;;;;;0.70;0.65;;;8.90;99.90;;;;;;5093850;28;20040;-74
2023/04/13 10:13:01;;;;;;;0.63;0.60;;;9.10;99.90;;;;;;5092262;28;20048;-74
2023/04/13 10:15:45;;;;;;;2.38;1.00;;;9.10;99.90;;;;;;5075538;28;20040;-74
2023/04/13 10:18:46;;;;;;;2.17;0.90;;;9.10;99.90;;;;;;5092387;28;20044;-74
2023/04/13 10:21:11;;;;;;;;;;;9.30;99.90;;;;;;5092695;28;20133;-74
2023/04/13 10:23:38;;;;;;;1.70;0.90;;;9.50;99.90;;;;;;5093733;28;19955;-74
2023/04/13 10:26:05;;;;;;;1.20;0.80;;;9.70;99.90;;;;;;5092174;28;20048;-74
2023/04/13 10:28:44;;;;;;;2.30;1.20;;;9.50;99.90;;;;;;5093705;28;20040;-74
2023/04/13 10:31:10;;;;;;;1.42;0.90;;;9.40;99.90;;;;;;5093542;28;20032;-74
2023/04/13 10:33:49;;;;;;;1.95;0.90;;;9.30;99.90;;;;;;5092325;28;20047;-73
2023/04/13 10:36:14;;;;;;;2.13;0.68;;;9.10;99.90;;;;;;5075533;28;20442;-74
2023/04/13 10:38:46;;;;;;;0.82;0.70;;;9.00;99.90;;;;;;5093330;28;20048;-75
2023/04/13 10:41:32;;;;;;;1.38;0.85;;;9.00;99.90;;;;;;5092415;28;20442;-74
2023/04/13 10:44:05;;;;;;;1.30;0.60;;;8.90;99.90;;;;;;5093241;28;20054;-74
2023/04/13 10:46:34;;;;;;;1.05;0.90;;;8.70;99.90;;;;;;5092181;28;20551;-74
2023/04/13 10:49:02;;;;;;;1.20;0.80;;;8.60;99.90;;;;;;5093459;28;20040;-74
2023/04/13 10:51:41;;;;;;;2.63;1.00;;;8.70;99.90;;;;;;5075016;28;20075;-74
2023/04/13 10:54:09;;;;;;;1.95;1.20;;;9.00;99.90;;;;;;5093471;28;20044;-75
2023/04/13 10:56:35;;;;;;;1.83;0.90;;;9.20;99.90;;;;;;5075028;28;20032;-75
2023/04/13 10:59:01;;;;;;;4.47;1.23;;;9.50;99.90;;;;;;5093360;28;20044;-75
2023/04/13 11:01:29;;;;;;;2.88;1.10;;;9.70;99.90;;;;;;5095980;28;20085;-75
2023/04/13 11:03:56;;;;;;;2.13;1.17;;;9.80;99.90;;;;;;5097382;28;20085;-74
2023/04/13 11:06:23;;;;;;;1.58;0.80;;;9.50;99.90;;;;;;5096039;28;20396;-76
2023/04/13 11:08:48;;;;;;;1.63;1.00;;;9.00;99.90;;;;;;5097296;28;20080;-75
2023/04/13 11:11:24;;;;;;;2.55;0.85;;;8.70;99.90;;;;;;5096828;28;20036;-74
2023/04/13 11:13:49;;;;;;;2.45;0.90;;;8.60;99.90;;;;;;5097409;28;20040;-75
2023/04/13 11:16:15;;;;;;;1.70;1.10;;;8.60;99.90;;;;;;5096790;28;20032;-75
2023/04/13 11:18:41;;;;;;;1.38;0.90;;;8.50;99.90;;;;;;5078572;28;20036;-74
2023/04/13 11:21:14;;;;;;;2.60;0.95;;;8.70;99.90;;;;;;5097496;28;20036;-75
2023/04/13 11:23:40;;;;;;;2.67;1.20;;;8.70;99.90;;;;;;5097003;28;20047;-75
2023/04/13 11:26:05;;;;;;;2.63;0.98;;;9.00;99.90;;;;;;5095380;28;20044;-74
2023/04/13 11:28:39;;;;;;;1.98;1.00;;;9.10;99.90;;;;;;5095671;28;20067;-75
2023/04/13 11:31:06;;;;;;;2.17;1.10;;;9.30;99.90;;;;;;5095551;28;20040;-74
2023/04/13 11:33:33;;;;;;;3.00;1.20;;;9.50;99.90;;;;;;5129611;27;20044;-74
2023/04/13 11:35:59;;;;;;;2.83;1.25;;;9.70;99.90;;;;;;5095191;28;20044;-74
2023/04/13 11:38:26;;;;;;;4.57;1.50;;;9.80;99.90;;;;;;5096400;28;20055;-74
2023/04/13 11:40:59;;;;;;;3.75;1.58;;;9.90;99.90;;;;;;5096592;28;20043;-74
2023/04/13 11:43:24;;;;;;;3.25;1.40;;;9.90;99.90;;;;;;5096919;28;20070;-74
2023/04/13 11:45:53;;;;;;;2.53;1.27;;;10.00;99.90;;;;;;5096255;28;20035;-74
2023/04/13 11:48:19;;;;;;;4.75;1.25;;;10.10;99.90;;;;;;5096536;28;20085;-74
2023/04/13 11:50:45;;;;;;;3.97;1.40;;;10.00;99.90;;;;;;5096439;28;20380;-75
2023/04/13 11:53:12;;;;;;;2.42;1.35;;;10.00;99.90;;;;;;5096797;28;20032;-75
2023/04/13 11:55:39;;;;;;;3.67;1.50;;;9.90;99.90;;;;;;5096040;28;20036;-75
2023/04/13 11:58:10;;;;;;;2.85;1.42;;;9.90;99.90;;;;;;5096326;28;20237;-75
2023/04/13 12:00:40;;;;;;;4.18;1.63;;;9.90;99.90;;;;;;5096312;28;20043;-74
2023/04/13 12:03:15;;;;;;;2.15;1.08;;;9.90;99.90;;;;;;5096470;28;20469;-74
2023/04/13 12:05:42;;;;;;;3.90;1.77;;;9.90;99.90;;;;;;5096172;28;20119;-74
2023/04/13 12:08:09;;;;;;;3.25;1.20;;;9.80;99.90;;;;;;5096125;28;20096;-75
2023/04/13 12:10:35;;;;;;;2.08;1.20;;;9.80;99.90;;;;;;5094654;28;20388;-75
2023/04/13 12:13:05;;;;;;;2.65;1.52;;;9.90;99.90;;;;;;5095775;28;20380;-75
2023/04/13 12:15:33;;;;;;;3.63;1.17;;;9.90;99.90;;;;;;5096116;28;20028;-75
2023/04/13 12:18:00;;;;;;;3.47;1.98;;;10.00;99.90;;;;;;5094674;28;20123;-75
2023/04/13 12:20:38;;;;;;;2.78;1.23;;;10.20;99.90;;;;;;5095655;28;20051;-75
2023/04/13 12:23:20;;;;;;;2.58;1.40;;;10.30;99.90;;;;;;5095858;28;20047;-75
2023/04/13 12:25:56;;;;;;;2.33;1.27;;;10.40;99.90;;;;;;5094583;28;20055;-75
2023/04/13 12:28:31;;;;;;;2.50;1.30;;;10.50;99.90;;;;;;5095675;28;20047;-75
2023/04/13 12:31:08;;;;;;;3.30;1.42;;;10.70;99.90;;;;;;5094042;28;20076;-75
2023/04/13 12:33:34;;;;;;;3.17;1.20;;;10.70;99.90;;;;;;5095625;28;20055;-75
2023/04/13 12:36:00;;;;;;;2.92;1.10;;;10.80;99.90;;;;;;5095296;28;20033;-75
2023/04/13 12:38:26;;;;;;;4.20;1.27;;;10.90;99.90;;;;;;5095230;28;20070;-75
2023/04/13 12:40:55;;;;;;;3.38;1.35;;;11.00;99.90;;;;;;5095444;28;20499;-75
2023/04/13 12:43:21;;;;;;;2.78;1.10;;;10.80;99.90;;;;;;5095128;28;20040;-75
2023/04/13 12:45:48;;;;;;;2.22;1.05;;;10.60;99.90;;;;;;5095081;28;20089;-75
2023/04/13 12:48:14;;;;;;;2.63;1.17;;;10.60;99.90;;;;;;5076895;28;20040;-75
2023/04/13 12:50:39;;;;;;;2.22;1.15;;;10.50;99.90;;;;;;5128088;27;20430;-75
2023/04/13 12:53:05;;;;;;;2.75;1.48;;;10.40;99.90;;;;;;5094808;28;20480;-75
2023/04/13 12:55:30;;;;;;;2.30;1.00;;;10.30;99.90;;;;;;5093897;28;20044;-75
2023/04/13 12:57:57;;;;;;;2.10;1.10;;;10.40;99.90;;;;;;5095107;28;20097;-75
2023/04/13 13:00:23;;;;;;;2.70;1.20;;;10.40;99.90;;;;;;5093599;28;20040;-75